sensor_id;sensor_type;location;lat;lon;timestamp;P1;durP1;ratioP1;P2;durP2;ratioP2
60704;SDS011;46545;38.014;-7.874;2022-07-05T00:00:52;23.58;;;12.20;;
60704;SDS011;46545;38.014;-7.874;2022-07-05T00:02:53;20.38;;;12.68;;
60704;SDS011;46545;38.014;-7.874;2022-07-05T00:04:54;22.08;;;12.52;;
60704;SDS011;46545;38.014;-7.874;2022-07-05T00:06:55;15.23;;;9.82;;
60704;SDS011;46545;38.014;-7.874;2022-07-05T00:09:14;19.33;;;10.32;;
60704;SDS011;46545;38.014;-7.874;2022-07-05T00:11:15;21.30;;;11.70;;
60704;SDS011;46545;38.014;-7.874;2022-07-05T00:13:16;22.35;;;11.73;;
60704;SDS011;46545;38.014;-7.874;2022-07-05T00:15:17;20.75;;;11.50;;
60704;SDS011;46545;38.014;-7.874;2022-07-05T00:17:19;19.77;;;10.77;;
60704;SDS011;46545;38.014;-7.874;2022-07-05T00:19:20;17.27;;;10.48;;
60704;SDS011;46545;38.014;-7.874;2022-07-05T00:21:20;20.17;;;10.93;;
60704;SDS011;46545;38.014;-7.874;2022-07-05T00:23:21;21.50;;;10.65;;
60704;SDS011;46545;38.014;-7.874;2022-07-05T00:25:22;19.27;;;11.50;;
60704;SDS011;46545;38.014;-7.874;2022-07-05T00:27:23;22.55;;;11.35;;
60704;SDS011;46545;38.014;-7.874;2022-07-05T00:29:24;24.15;;;11.98;;
60704;SDS011;46545;38.014;-7.874;2022-07-05T00:31:26;21.52;;;12.10;;
60704;SDS011;46545;38.014;-7.874;2022-07-05T00:33:27;27.58;;;12.00;;
60704;SDS011;46545;38.014;-7.874;2022-07-05T00:35:27;19.83;;;11.95;;
60704;SDS011;46545;38.014;-7.874;2022-07-05T00:37:28;22.08;;;11.90;;
60704;SDS011;46545;38.014;-7.874;2022-07-05T00:39:29;20.33;;;10.77;;
60704;SDS011;46545;38.014;-7.874;2022-07-05T00:41:30;19.17;;;10.95;;
60704;SDS011;46545;38.014;-7.874;2022-07-05T00:43:32;20.25;;;11.40;;
60704;SDS011;46545;38.014;-7.874;2022-07-05T00:45:32;22.92;;;11.77;;
60704;SDS011;46545;38.014;-7.874;2022-07-05T00:47:33;20.05;;;10.88;;
60704;SDS011;46545;38.014;-7.874;2022-07-05T00:49:34;21.67;;;11.75;;
60704;SDS011;46545;38.014;-7.874;2022-07-05T00:51:36;21.15;;;12.20;;
60704;SDS011;46545;38.014;-7.874;2022-07-05T00:53:38;15.57;;;10.52;;
60704;SDS011;46545;38.014;-7.874;2022-07-05T00:55:40;18.38;;;10.00;;
60704;SDS011;46545;38.014;-7.874;2022-07-05T00:57:43;20.53;;;11.67;;
60704;SDS011;46545;38.014;-7.874;2022-07-05T00:59:44;24.98;;;10.90;;
60704;SDS011;46545;38.014;-7.874;2022-07-05T01:01:44;21.98;;;11.05;;
60704;SDS011;46545;38.014;-7.874;2022-07-05T01:03:45;14.40;;;9.18;;
60704;SDS011;46545;38.014;-7.874;2022-07-05T01:05:48;17.48;;;9.13;;
60704;SDS011;46545;38.014;-7.874;2022-07-05T01:07:49;21.20;;;10.43;;
60704;SDS011;46545;38.014;-7.874;2022-07-05T01:09:50;23.65;;;10.00;;
60704;SDS011;46545;38.014;-7.874;2022-07-05T01:11:51;25.23;;;9.82;;
60704;SDS011;46545;38.014;-7.874;2022-07-05T01:13:52;19.15;;;9.93;;
60704;SDS011;46545;38.014;-7.874;2022-07-05T01:15:53;18.45;;;8.82;;
60704;SDS011;46545;38.014;-7.874;2022-07-05T01:17:55;25.00;;;9.30;;
60704;SDS011;46545;38.014;-7.874;2022-07-05T01:19:56;16.35;;;8.00;;
60704;SDS011;46545;38.014;-7.874;2022-07-05T01:21:57;16.42;;;7.63;;
60704;SDS011;46545;38.014;-7.874;2022-07-05T01:24:03;23.63;;;7.78;;
60704;SDS011;46545;38.014;-7.874;2022-07-05T01:26:05;18.77;;;7.47;;
60704;SDS011;46545;38.014;-7.874;2022-07-05T01:28:07;16.20;;;7.03;;
60704;SDS011;46545;38.014;-7.874;2022-07-05T01:30:08;12.60;;;6.95;;
60704;SDS011;46545;38.014;-7.874;2022-07-05T01:32:09;14.68;;;9.50;;
60704;SDS011;46545;38.014;-7.874;2022-07-05T01:34:10;17.63;;;6.90;;
60704;SDS011;46545;38.014;-7.874;2022-07-05T01:36:11;11.48;;;7.85;;
60704;SDS011;46545;38.014;-7.874;2022-07-05T01:38:12;12.50;;;7.35;;
60704;SDS011;46545;38.014;-7.874;2022-07-05T01:40:13;17.63;;;7.35;;
60704;SDS011;46545;38.014;-7.874;2022-07-05T01:42:14;13.10;;;8.00;;
60704;SDS011;46545;38.014;-7.874;2022-07-05T01:44:15;20.00;;;8.32;;
60704;SDS011;46545;38.014;-7.874;2022-07-05T01:46:16;16.77;;;7.38;;
60704;SDS011;46545;38.014;-7.874;2022-07-05T01:48:20;21.38;;;8.95;;
60704;SDS011;46545;38.014;-7.874;2022-07-05T01:50:22;19.15;;;7.72;;
60704;SDS011;46545;38.014;-7.874;2022-07-05T01:52:23;13.40;;;7.18;;
60704;SDS011;46545;38.014;-7.874;2022-07-05T01:54:25;17.38;;;8.52;;
60704;SDS011;46545;38.014;-7.874;2022-07-05T01:56:26;19.52;;;8.00;;
60704;SDS011;46545;38.014;-7.874;2022-07-05T01:58:26;17.52;;;10.00;;
60704;SDS011;46545;38.014;-7.874;2022-07-05T02:00:27;20.50;;;9.20;;
60704;SDS011;46545;38.014;-7.874;2022-07-05T02:02:28;20.00;;;9.68;;
60704;SDS011;46545;38.014;-7.874;2022-07-05T02:04:29;16.92;;;8.38;;
60704;SDS011;46545;38.014;-7.874;2022-07-05T02:06:30;15.85;;;9.73;;
60704;SDS011;46545;38.014;-7.874;2022-07-05T02:08:33;21.65;;;9.57;;
60704;SDS011;46545;38.014;-7.874;2022-07-05T02:10:34;25.83;;;11.20;;
60704;SDS011;46545;38.014;-7.874;2022-07-05T02:12:36;25.52;;;9.63;;
60704;SDS011;46545;38.014;-7.874;2022-07-05T02:14:36;25.50;;;10.38;;
60704;SDS011;46545;38.014;-7.874;2022-07-05T02:16:41;25.40;;;12.02;;
60704;SDS011;46545;38.014;-7.874;2022-07-05T02:18:42;23.02;;;11.90;;
60704;SDS011;46545;38.014;-7.874;2022-07-05T02:20:43;27.63;;;14.40;;
60704;SDS011;46545;38.014;-7.874;2022-07-05T02:22:45;33.85;;;18.23;;
60704;SDS011;46545;38.014;-7.874;2022-07-05T02:24:46;30.60;;;17.20;;
60704;SDS011;46545;38.014;-7.874;2022-07-05T02:26:55;49.70;;;23.50;;
60704;SDS011;46545;38.014;-7.874;2022-07-05T02:28:56;41.53;;;24.23;;
60704;SDS011;46545;38.014;-7.874;2022-07-05T02:30:57;41.45;;;24.20;;
60704;SDS011;46545;38.014;-7.874;2022-07-05T02:32:59;47.83;;;23.38;;
60704;SDS011;46545;38.014;-7.874;2022-07-05T02:35:02;38.35;;;22.00;;
60704;SDS011;46545;38.014;-7.874;2022-07-05T02:37:04;38.05;;;21.30;;
60704;SDS011;46545;38.014;-7.874;2022-07-05T02:39:07;39.50;;;20.17;;
60704;SDS011;46545;38.014;-7.874;2022-07-05T02:41:09;32.95;;;19.75;;
60704;SDS011;46545;38.014;-7.874;2022-07-05T02:43:13;41.08;;;21.10;;
60704;SDS011;46545;38.014;-7.874;2022-07-05T02:45:14;42.42;;;21.08;;
60704;SDS011;46545;38.014;-7.874;2022-07-05T02:47:16;31.98;;;19.63;;
60704;SDS011;46545;38.014;-7.874;2022-07-05T02:49:17;35.00;;;21.35;;
60704;SDS011;46545;38.014;-7.874;2022-07-05T02:51:18;42.05;;;20.00;;
60704;SDS011;46545;38.014;-7.874;2022-07-05T02:53:22;35.42;;;19.25;;
60704;SDS011;46545;38.014;-7.874;2022-07-05T02:55:24;37.70;;;18.83;;
60704;SDS011;46545;38.014;-7.874;2022-07-05T02:57:26;27.77;;;15.23;;
60704;SDS011;46545;38.014;-7.874;2022-07-05T02:59:27;29.92;;;15.20;;
60704;SDS011;46545;38.014;-7.874;2022-07-05T03:01:28;30.30;;;13.35;;
60704;SDS011;46545;38.014;-7.874;2022-07-05T03:03:30;26.35;;;12.65;;
60704;SDS011;46545;38.014;-7.874;2022-07-05T03:05:32;20.45;;;10.15;;
60704;SDS011;46545;38.014;-7.874;2022-07-05T03:07:36;18.60;;;10.10;;
60704;SDS011;46545;38.014;-7.874;2022-07-05T03:09:38;20.15;;;9.65;;
60704;SDS011;46545;38.014;-7.874;2022-07-05T03:11:40;16.27;;;9.13;;
60704;SDS011;46545;38.014;-7.874;2022-07-05T03:13:42;23.23;;;10.48;;
60704;SDS011;46545;38.014;-7.874;2022-07-05T03:15:43;20.67;;;10.68;;
60704;SDS011;46545;38.014;-7.874;2022-07-05T03:17:45;25.23;;;11.27;;
60704;SDS011;46545;38.014;-7.874;2022-07-05T03:19:50;18.75;;;8.68;;
60704;SDS011;46545;38.014;-7.874;2022-07-05T03:21:54;20.92;;;9.65;;
60704;SDS011;46545;38.014;-7.874;2022-07-05T03:23:54;23.10;;;10.75;;
60704;SDS011;46545;38.014;-7.874;2022-07-05T03:25:56;16.65;;;8.80;;
60704;SDS011;46545;38.014;-7.874;2022-07-05T03:27:57;20.02;;;8.50;;
60704;SDS011;46545;38.014;-7.874;2022-07-05T03:29:59;16.65;;;8.38;;
60704;SDS011;46545;38.014;-7.874;2022-07-05T03:32:00;19.58;;;9.95;;
60704;SDS011;46545;38.014;-7.874;2022-07-05T03:34:03;14.70;;;9.18;;
60704;SDS011;46545;38.014;-7.874;2022-07-05T03:36:06;17.47;;;8.77;;
60704;SDS011;46545;38.014;-7.874;2022-07-05T03:38:07;19.10;;;8.57;;
60704;SDS011;46545;38.014;-7.874;2022-07-05T03:40:08;26.00;;;9.93;;
60704;SDS011;46545;38.014;-7.874;2022-07-05T03:42:09;23.60;;;9.50;;
60704;SDS011;46545;38.014;-7.874;2022-07-05T03:44:10;16.08;;;8.73;;
60704;SDS011;46545;38.014;-7.874;2022-07-05T03:46:11;18.30;;;8.25;;
60704;SDS011;46545;38.014;-7.874;2022-07-05T03:48:14;18.23;;;8.65;;
60704;SDS011;46545;38.014;-7.874;2022-07-05T03:50:15;20.15;;;10.35;;
60704;SDS011;46545;38.014;-7.874;2022-07-05T03:52:17;17.02;;;9.98;;
60704;SDS011;46545;38.014;-7.874;2022-07-05T03:54:19;18.52;;;9.48;;
60704;SDS011;46545;38.014;-7.874;2022-07-05T03:56:20;18.20;;;10.43;;
60704;SDS011;46545;38.014;-7.874;2022-07-05T03:58:25;20.85;;;9.43;;
60704;SDS011;46545;38.014;-7.874;2022-07-05T04:00:26;20.05;;;9.98;;
60704;SDS011;46545;38.014;-7.874;2022-07-05T04:02:34;20.33;;;8.80;;
60704;SDS011;46545;38.014;-7.874;2022-07-05T04:04:35;15.77;;;8.98;;
60704;SDS011;46545;38.014;-7.874;2022-07-05T04:06:36;16.45;;;9.82;;
60704;SDS011;46545;38.014;-7.874;2022-07-05T04:08:37;24.40;;;9.63;;
60704;SDS011;46545;38.014;-7.874;2022-07-05T04:10:39;18.80;;;10.00;;
60704;SDS011;46545;38.014;-7.874;2022-07-05T04:12:40;22.50;;;10.75;;
60704;SDS011;46545;38.014;-7.874;2022-07-05T04:14:40;18.20;;;8.90;;
60704;SDS011;46545;38.014;-7.874;2022-07-05T04:16:41;16.55;;;8.30;;
60704;SDS011;46545;38.014;-7.874;2022-07-05T04:18:42;18.17;;;9.15;;
60704;SDS011;46545;38.014;-7.874;2022-07-05T04:20:43;15.45;;;8.25;;
60704;SDS011;46545;38.014;-7.874;2022-07-05T04:22:46;18.25;;;8.95;;
60704;SDS011;46545;38.014;-7.874;2022-07-05T04:24:49;26.67;;;10.07;;
60704;SDS011;46545;38.014;-7.874;2022-07-05T04:27:09;25.25;;;10.73;;
60704;SDS011;46545;38.014;-7.874;2022-07-05T04:29:10;21.45;;;10.38;;
60704;SDS011;46545;38.014;-7.874;2022-07-05T04:31:13;20.73;;;10.30;;
60704;SDS011;46545;38.014;-7.874;2022-07-05T04:33:19;28.77;;;12.25;;
60704;SDS011;46545;38.014;-7.874;2022-07-05T04:35:22;23.70;;;11.48;;
60704;SDS011;46545;38.014;-7.874;2022-07-05T04:37:27;20.60;;;11.00;;
60704;SDS011;46545;38.014;-7.874;2022-07-05T04:39:28;20.08;;;9.68;;
60704;SDS011;46545;38.014;-7.874;2022-07-05T04:41:36;22.58;;;11.10;;
60704;SDS011;46545;38.014;-7.874;2022-07-05T04:43:40;23.23;;;10.77;;
60704;SDS011;46545;38.014;-7.874;2022-07-05T04:45:44;28.83;;;12.55;;
60704;SDS011;46545;38.014;-7.874;2022-07-05T04:47:45;19.88;;;10.90;;
60704;SDS011;46545;38.014;-7.874;2022-07-05T04:49:47;21.70;;;11.15;;
60704;SDS011;46545;38.014;-7.874;2022-07-05T04:51:49;29.33;;;12.32;;
60704;SDS011;46545;38.014;-7.874;2022-07-05T04:53:50;31.00;;;13.80;;
60704;SDS011;46545;38.014;-7.874;2022-07-05T04:55:51;23.00;;;12.00;;
60704;SDS011;46545;38.014;-7.874;2022-07-05T04:57:52;25.30;;;11.05;;
60704;SDS011;46545;38.014;-7.874;2022-07-05T04:59:53;31.65;;;13.80;;
60704;SDS011;46545;38.014;-7.874;2022-07-05T05:01:55;32.22;;;14.10;;
60704;SDS011;46545;38.014;-7.874;2022-07-05T05:03:55;27.65;;;12.32;;
60704;SDS011;46545;38.014;-7.874;2022-07-05T05:05:57;29.73;;;14.00;;
60704;SDS011;46545;38.014;-7.874;2022-07-05T05:07:58;35.58;;;12.38;;
60704;SDS011;46545;38.014;-7.874;2022-07-05T05:09:59;22.23;;;11.02;;
60704;SDS011;46545;38.014;-7.874;2022-07-05T05:11:59;31.88;;;12.70;;
60704;SDS011;46545;38.014;-7.874;2022-07-05T05:14:00;21.33;;;11.15;;
60704;SDS011;46545;38.014;-7.874;2022-07-05T05:16:01;32.95;;;12.88;;
60704;SDS011;46545;38.014;-7.874;2022-07-05T05:18:02;28.13;;;12.55;;
60704;SDS011;46545;38.014;-7.874;2022-07-05T05:20:06;20.42;;;10.77;;
60704;SDS011;46545;38.014;-7.874;2022-07-05T05:22:11;21.58;;;10.63;;
60704;SDS011;46545;38.014;-7.874;2022-07-05T05:24:12;22.23;;;11.02;;
60704;SDS011;46545;38.014;-7.874;2022-07-05T05:26:12;23.42;;;10.95;;
60704;SDS011;46545;38.014;-7.874;2022-07-05T05:28:13;19.02;;;10.23;;
60704;SDS011;46545;38.014;-7.874;2022-07-05T05:30:15;20.75;;;10.55;;
60704;SDS011;46545;38.014;-7.874;2022-07-05T05:32:19;19.83;;;10.45;;
60704;SDS011;46545;38.014;-7.874;2022-07-05T05:34:20;21.92;;;10.35;;
60704;SDS011;46545;38.014;-7.874;2022-07-05T05:36:21;27.17;;;10.93;;
60704;SDS011;46545;38.014;-7.874;2022-07-05T05:38:21;17.08;;;9.55;;
60704;SDS011;46545;38.014;-7.874;2022-07-05T05:40:23;19.63;;;9.95;;
60704;SDS011;46545;38.014;-7.874;2022-07-05T05:42:25;18.45;;;11.50;;
60704;SDS011;46545;38.014;-7.874;2022-07-05T05:44:26;22.63;;;9.93;;
60704;SDS011;46545;38.014;-7.874;2022-07-05T05:46:27;16.65;;;9.15;;
60704;SDS011;46545;38.014;-7.874;2022-07-05T05:48:28;20.17;;;10.13;;
60704;SDS011;46545;38.014;-7.874;2022-07-05T05:50:33;17.25;;;8.90;;
60704;SDS011;46545;38.014;-7.874;2022-07-05T05:52:35;18.25;;;9.52;;
60704;SDS011;46545;38.014;-7.874;2022-07-05T05:54:35;19.35;;;10.25;;
60704;SDS011;46545;38.014;-7.874;2022-07-05T05:56:36;16.33;;;9.55;;
60704;SDS011;46545;38.014;-7.874;2022-07-05T05:58:38;20.02;;;11.48;;
60704;SDS011;46545;38.014;-7.874;2022-07-05T06:00:39;20.98;;;11.13;;
60704;SDS011;46545;38.014;-7.874;2022-07-05T06:02:40;24.88;;;10.55;;
60704;SDS011;46545;38.014;-7.874;2022-07-05T06:04:41;17.70;;;10.25;;
60704;SDS011;46545;38.014;-7.874;2022-07-05T06:06:42;20.00;;;11.45;;
60704;SDS011;46545;38.014;-7.874;2022-07-05T06:08:43;23.95;;;11.88;;
60704;SDS011;46545;38.014;-7.874;2022-07-05T06:10:44;19.88;;;10.60;;
60704;SDS011;46545;38.014;-7.874;2022-07-05T06:12:45;21.13;;;10.63;;
60704;SDS011;46545;38.014;-7.874;2022-07-05T06:14:46;18.48;;;10.15;;
60704;SDS011;46545;38.014;-7.874;2022-07-05T06:16:47;22.23;;;10.65;;
60704;SDS011;46545;38.014;-7.874;2022-07-05T06:18:48;18.83;;;9.52;;
60704;SDS011;46545;38.014;-7.874;2022-07-05T06:20:48;15.65;;;10.45;;
60704;SDS011;46545;38.014;-7.874;2022-07-05T06:22:49;19.08;;;10.65;;
60704;SDS011;46545;38.014;-7.874;2022-07-05T06:24:51;21.85;;;10.98;;
60704;SDS011;46545;38.014;-7.874;2022-07-05T06:26:52;23.48;;;10.98;;
60704;SDS011;46545;38.014;-7.874;2022-07-05T06:28:53;15.90;;;9.20;;
60704;SDS011;46545;38.014;-7.874;2022-07-05T06:30:53;20.27;;;11.00;;
60704;SDS011;46545;38.014;-7.874;2022-07-05T06:32:54;19.50;;;9.77;;
60704;SDS011;46545;38.014;-7.874;2022-07-05T06:34:56;17.25;;;10.75;;
60704;SDS011;46545;38.014;-7.874;2022-07-05T06:36:56;17.33;;;10.20;;
60704;SDS011;46545;38.014;-7.874;2022-07-05T06:38:57;18.83;;;10.35;;
60704;SDS011;46545;38.014;-7.874;2022-07-05T06:40:59;15.25;;;8.65;;
60704;SDS011;46545;38.014;-7.874;2022-07-05T06:43:01;17.45;;;10.60;;
60704;SDS011;46545;38.014;-7.874;2022-07-05T06:45:21;20.83;;;10.77;;
60704;SDS011;46545;38.014;-7.874;2022-07-05T06:47:22;17.48;;;10.38;;
60704;SDS011;46545;38.014;-7.874;2022-07-05T06:49:23;18.65;;;10.55;;
60704;SDS011;46545;38.014;-7.874;2022-07-05T06:51:23;18.83;;;9.88;;
60704;SDS011;46545;38.014;-7.874;2022-07-05T06:53:24;18.23;;;10.40;;
60704;SDS011;46545;38.014;-7.874;2022-07-05T06:55:26;16.08;;;9.55;;
60704;SDS011;46545;38.014;-7.874;2022-07-05T06:57:28;25.90;;;13.50;;
60704;SDS011;46545;38.014;-7.874;2022-07-05T06:59:29;22.05;;;10.82;;
60704;SDS011;46545;38.014;-7.874;2022-07-05T07:01:29;20.33;;;12.60;;
60704;SDS011;46545;38.014;-7.874;2022-07-05T07:03:30;19.05;;;11.15;;
60704;SDS011;46545;38.014;-7.874;2022-07-05T07:05:31;18.85;;;9.88;;
60704;SDS011;46545;38.014;-7.874;2022-07-05T07:07:32;21.13;;;10.10;;
60704;SDS011;46545;38.014;-7.874;2022-07-05T07:09:52;16.88;;;10.82;;
60704;SDS011;46545;38.014;-7.874;2022-07-05T07:11:52;23.48;;;11.20;;
60704;SDS011;46545;38.014;-7.874;2022-07-05T07:13:53;23.00;;;9.65;;
60704;SDS011;46545;38.014;-7.874;2022-07-05T07:15:54;25.27;;;12.05;;
60704;SDS011;46545;38.014;-7.874;2022-07-05T07:17:55;20.67;;;11.43;;
60704;SDS011;46545;38.014;-7.874;2022-07-05T07:19:56;24.73;;;12.55;;
60704;SDS011;46545;38.014;-7.874;2022-07-05T07:21:56;29.83;;;13.63;;
60704;SDS011;46545;38.014;-7.874;2022-07-05T07:23:57;21.35;;;11.90;;
60704;SDS011;46545;38.014;-7.874;2022-07-05T07:25:58;20.17;;;11.93;;
60704;SDS011;46545;38.014;-7.874;2022-07-05T07:27:58;16.63;;;10.18;;
60704;SDS011;46545;38.014;-7.874;2022-07-05T07:29:59;16.45;;;11.05;;
60704;SDS011;46545;38.014;-7.874;2022-07-05T07:32:01;20.75;;;12.75;;
60704;SDS011;46545;38.014;-7.874;2022-07-05T07:34:03;18.80;;;11.55;;
60704;SDS011;46545;38.014;-7.874;2022-07-05T07:36:03;18.63;;;11.73;;
60704;SDS011;46545;38.014;-7.874;2022-07-05T07:38:05;22.15;;;13.05;;
60704;SDS011;46545;38.014;-7.874;2022-07-05T07:40:06;19.73;;;12.13;;
60704;SDS011;46545;38.014;-7.874;2022-07-05T07:42:07;22.70;;;11.43;;
60704;SDS011;46545;38.014;-7.874;2022-07-05T07:44:08;23.13;;;12.85;;
60704;SDS011;46545;38.014;-7.874;2022-07-05T07:46:09;23.00;;;12.65;;
60704;SDS011;46545;38.014;-7.874;2022-07-05T07:48:10;18.42;;;10.70;;
60704;SDS011;46545;38.014;-7.874;2022-07-05T07:50:10;17.65;;;10.63;;
60704;SDS011;46545;38.014;-7.874;2022-07-05T07:52:11;19.55;;;9.35;;
60704;SDS011;46545;38.014;-7.874;2022-07-05T07:54:12;17.90;;;8.73;;
60704;SDS011;46545;38.014;-7.874;2022-07-05T07:56:14;13.98;;;9.00;;
60704;SDS011;46545;38.014;-7.874;2022-07-05T07:58:19;16.83;;;9.48;;
60704;SDS011;46545;38.014;-7.874;2022-07-05T08:00:20;20.17;;;10.25;;
60704;SDS011;46545;38.014;-7.874;2022-07-05T08:02:21;21.38;;;10.90;;
60704;SDS011;46545;38.014;-7.874;2022-07-05T08:04:23;15.38;;;9.77;;
60704;SDS011;46545;38.014;-7.874;2022-07-05T08:06:23;16.58;;;9.50;;
60704;SDS011;46545;38.014;-7.874;2022-07-05T08:08:24;38.53;;;12.52;;
60704;SDS011;46545;38.014;-7.874;2022-07-05T08:10:25;70.68;;;13.73;;
60704;SDS011;46545;38.014;-7.874;2022-07-05T08:12:26;12.52;;;7.60;;
60704;SDS011;46545;38.014;-7.874;2022-07-05T08:14:26;13.52;;;7.28;;
60704;SDS011;46545;38.014;-7.874;2022-07-05T08:16:27;15.23;;;8.52;;
60704;SDS011;46545;38.014;-7.874;2022-07-05T08:18:28;13.82;;;7.78;;
60704;SDS011;46545;38.014;-7.874;2022-07-05T08:20:47;10.18;;;5.82;;
60704;SDS011;46545;38.014;-7.874;2022-07-05T08:23:07;11.90;;;7.28;;
60704;SDS011;46545;38.014;-7.874;2022-07-05T08:25:07;10.80;;;6.03;;
60704;SDS011;46545;38.014;-7.874;2022-07-05T08:27:09;10.05;;;7.50;;
60704;SDS011;46545;38.014;-7.874;2022-07-05T08:29:11;10.38;;;6.75;;
60704;SDS011;46545;38.014;-7.874;2022-07-05T08:31:13;8.82;;;6.20;;
60704;SDS011;46545;38.014;-7.874;2022-07-05T08:33:14;9.98;;;7.70;;
60704;SDS011;46545;38.014;-7.874;2022-07-05T08:35:14;10.02;;;7.35;;
60704;SDS011;46545;38.014;-7.874;2022-07-05T08:37:15;15.13;;;8.88;;
60704;SDS011;46545;38.014;-7.874;2022-07-05T08:39:16;10.60;;;7.00;;
60704;SDS011;46545;38.014;-7.874;2022-07-05T08:41:18;9.40;;;6.25;;
60704;SDS011;46545;38.014;-7.874;2022-07-05T08:43:19;7.45;;;6.03;;
60704;SDS011;46545;38.014;-7.874;2022-07-05T08:45:23;8.55;;;6.72;;
60704;SDS011;46545;38.014;-7.874;2022-07-05T08:47:27;9.40;;;6.40;;
60704;SDS011;46545;38.014;-7.874;2022-07-05T08:49:28;9.55;;;6.30;;
60704;SDS011;46545;38.014;-7.874;2022-07-05T08:51:35;8.65;;;6.22;;
60704;SDS011;46545;38.014;-7.874;2022-07-05T08:53:39;11.10;;;8.30;;
60704;SDS011;46545;38.014;-7.874;2022-07-05T08:55:41;9.00;;;7.10;;
60704;SDS011;46545;38.014;-7.874;2022-07-05T08:57:42;9.63;;;7.80;;
60704;SDS011;46545;38.014;-7.874;2022-07-05T08:59:43;11.10;;;8.75;;
60704;SDS011;46545;38.014;-7.874;2022-07-05T09:01:45;10.90;;;9.32;;
60704;SDS011;46545;38.014;-7.874;2022-07-05T09:03:48;11.10;;;7.63;;
60704;SDS011;46545;38.014;-7.874;2022-07-05T09:05:50;7.97;;;7.18;;
60704;SDS011;46545;38.014;-7.874;2022-07-05T09:07:56;12.70;;;8.05;;
60704;SDS011;46545;38.014;-7.874;2022-07-05T09:09:59;12.52;;;7.80;;
60704;SDS011;46545;38.014;-7.874;2022-07-05T09:12:03;9.32;;;7.57;;
60704;SDS011;46545;38.014;-7.874;2022-07-05T09:14:05;11.30;;;8.25;;
60704;SDS011;46545;38.014;-7.874;2022-07-05T09:16:08;9.07;;;7.72;;
60704;SDS011;46545;38.014;-7.874;2022-07-05T09:18:10;10.35;;;8.10;;
60704;SDS011;46545;38.014;-7.874;2022-07-05T09:20:14;9.43;;;7.10;;
60704;SDS011;46545;38.014;-7.874;2022-07-05T09:22:17;11.10;;;7.07;;
60704;SDS011;46545;38.014;-7.874;2022-07-05T09:24:18;9.35;;;6.18;;
60704;SDS011;46545;38.014;-7.874;2022-07-05T09:26:19;10.93;;;8.13;;
60704;SDS011;46545;38.014;-7.874;2022-07-05T09:28:19;8.50;;;7.13;;
60704;SDS011;46545;38.014;-7.874;2022-07-05T09:30:26;10.65;;;7.57;;
60704;SDS011;46545;38.014;-7.874;2022-07-05T09:32:33;11.55;;;8.02;;
60704;SDS011;46545;38.014;-7.874;2022-07-05T09:34:33;10.25;;;7.10;;
60704;SDS011;46545;38.014;-7.874;2022-07-05T09:36:47;11.63;;;7.45;;
60704;SDS011;46545;38.014;-7.874;2022-07-05T09:38:56;12.20;;;7.85;;
60704;SDS011;46545;38.014;-7.874;2022-07-05T09:40:57;12.68;;;7.72;;
60704;SDS011;46545;38.014;-7.874;2022-07-05T09:43:14;8.35;;;6.72;;
60704;SDS011;46545;38.014;-7.874;2022-07-05T09:45:22;12.10;;;7.38;;
60704;SDS011;46545;38.014;-7.874;2022-07-05T09:47:28;11.77;;;7.15;;
60704;SDS011;46545;38.014;-7.874;2022-07-05T09:49:29;9.40;;;7.32;;
60704;SDS011;46545;38.014;-7.874;2022-07-05T09:51:46;12.40;;;8.40;;
60704;SDS011;46545;38.014;-7.874;2022-07-05T09:53:48;11.05;;;7.50;;
60704;SDS011;46545;38.014;-7.874;2022-07-05T09:56:02;7.90;;;6.78;;
60704;SDS011;46545;38.014;-7.874;2022-07-05T09:58:04;10.95;;;7.25;;
60704;SDS011;46545;38.014;-7.874;2022-07-05T10:02:06;11.00;;;7.78;;
60704;SDS011;46545;38.014;-7.874;2022-07-05T10:04:07;13.40;;;9.30;;
60704;SDS011;46545;38.014;-7.874;2022-07-05T10:06:11;14.90;;;9.65;;
60704;SDS011;46545;38.014;-7.874;2022-07-05T10:08:12;14.48;;;10.27;;
60704;SDS011;46545;38.014;-7.874;2022-07-05T10:10:14;15.52;;;9.68;;
60704;SDS011;46545;38.014;-7.874;2022-07-05T10:14:21;11.30;;;8.60;;
60704;SDS011;46545;38.014;-7.874;2022-07-05T10:16:23;14.70;;;8.02;;
60704;SDS011;46545;38.014;-7.874;2022-07-05T10:18:25;15.07;;;8.48;;
60704;SDS011;46545;38.014;-7.874;2022-07-05T10:22:41;14.48;;;8.50;;
60704;SDS011;46545;38.014;-7.874;2022-07-05T10:24:42;13.93;;;9.32;;
60704;SDS011;46545;38.014;-7.874;2022-07-05T10:26:44;12.10;;;10.13;;
60704;SDS011;46545;38.014;-7.874;2022-07-05T10:28:49;14.75;;;10.43;;
60704;SDS011;46545;38.014;-7.874;2022-07-05T10:30:51;16.50;;;9.98;;
60704;SDS011;46545;38.014;-7.874;2022-07-05T10:32:52;14.52;;;10.30;;
60704;SDS011;46545;38.014;-7.874;2022-07-05T10:34:54;18.17;;;10.52;;
60704;SDS011;46545;38.014;-7.874;2022-07-05T10:36:58;17.98;;;10.38;;
60704;SDS011;46545;38.014;-7.874;2022-07-05T10:38:58;19.00;;;10.88;;
60704;SDS011;46545;38.014;-7.874;2022-07-05T10:41:01;16.25;;;12.07;;
60704;SDS011;46545;38.014;-7.874;2022-07-05T10:43:03;14.75;;;10.50;;
60704;SDS011;46545;38.014;-7.874;2022-07-05T10:47:29;21.50;;;11.80;;
60704;SDS011;46545;38.014;-7.874;2022-07-05T10:49:30;17.10;;;10.88;;
60704;SDS011;46545;38.014;-7.874;2022-07-05T10:51:34;15.73;;;10.98;;
60704;SDS011;46545;38.014;-7.874;2022-07-05T10:55:48;21.65;;;11.57;;
60704;SDS011;46545;38.014;-7.874;2022-07-05T11:00:28;15.45;;;10.70;;
60704;SDS011;46545;38.014;-7.874;2022-07-05T11:02:29;20.38;;;10.82;;
60704;SDS011;46545;38.014;-7.874;2022-07-05T11:04:29;18.33;;;12.02;;
60704;SDS011;46545;38.014;-7.874;2022-07-05T11:06:33;27.02;;;12.50;;
60704;SDS011;46545;38.014;-7.874;2022-07-05T11:11:12;17.85;;;10.80;;
60704;SDS011;46545;38.014;-7.874;2022-07-05T11:13:35;17.40;;;11.13;;
60704;SDS011;46545;38.014;-7.874;2022-07-05T11:15:36;15.38;;;10.75;;
60704;SDS011;46545;38.014;-7.874;2022-07-05T11:17:37;16.08;;;10.75;;
60704;SDS011;46545;38.014;-7.874;2022-07-05T11:22:14;15.50;;;9.95;;
60704;SDS011;46545;38.014;-7.874;2022-07-05T11:24:24;18.27;;;10.82;;
60704;SDS011;46545;38.014;-7.874;2022-07-05T11:26:26;16.23;;;10.32;;
60704;SDS011;46545;38.014;-7.874;2022-07-05T11:28:27;15.88;;;9.30;;
60704;SDS011;46545;38.014;-7.874;2022-07-05T11:30:50;19.20;;;11.07;;
60704;SDS011;46545;38.014;-7.874;2022-07-05T11:32:53;16.40;;;10.07;;
60704;SDS011;46545;38.014;-7.874;2022-07-05T11:34:54;16.75;;;10.80;;
60704;SDS011;46545;38.014;-7.874;2022-07-05T11:39:24;12.75;;;9.02;;
60704;SDS011;46545;38.014;-7.874;2022-07-05T11:41:26;14.57;;;9.85;;
60704;SDS011;46545;38.014;-7.874;2022-07-05T11:43:31;14.60;;;10.02;;
60704;SDS011;46545;38.014;-7.874;2022-07-05T11:45:32;14.73;;;10.75;;
60704;SDS011;46545;38.014;-7.874;2022-07-05T11:47:33;19.58;;;10.77;;
60704;SDS011;46545;38.014;-7.874;2022-07-05T11:49:35;14.02;;;9.05;;
60704;SDS011;46545;38.014;-7.874;2022-07-05T11:51:36;12.50;;;9.02;;
60704;SDS011;46545;38.014;-7.874;2022-07-05T11:53:37;14.70;;;9.00;;
60704;SDS011;46545;38.014;-7.874;2022-07-05T11:57:48;14.50;;;9.20;;
60704;SDS011;46545;38.014;-7.874;2022-07-05T11:59:50;15.07;;;9.43;;
60704;SDS011;46545;38.014;-7.874;2022-07-05T12:01:52;15.02;;;9.65;;
60704;SDS011;46545;38.014;-7.874;2022-07-05T12:03:54;15.02;;;9.20;;
60704;SDS011;46545;38.014;-7.874;2022-07-05T12:05:56;15.25;;;9.88;;
60704;SDS011;46545;38.014;-7.874;2022-07-05T12:07:56;15.32;;;10.23;;
60704;SDS011;46545;38.014;-7.874;2022-07-05T12:09:58;13.48;;;9.43;;
60704;SDS011;46545;38.014;-7.874;2022-07-05T12:12:22;18.70;;;9.93;;
60704;SDS011;46545;38.014;-7.874;2022-07-05T12:14:51;11.35;;;9.10;;